This is the latest recevied weather packets stored in our database for station/object SP9KB-14. If no packets are shown the sender has not sent any weather packets the latest 10 day(s).
| Time | Temp. | Humidity | Pressure | Rain* | Wind** | Luminosity | Snow |
|---|---|---|---|---|---|---|---|
| 1777943419 | 12.78° C | 69% | 1035.3 hPa | 0 mm | - | - | - |
| 1777943119 | 13.33° C | 66% | 1035.5 hPa | 0 mm | - | - | - |
| 1777942818 | 13.33° C | 61% | 1035.5 hPa | 0 mm | - | - | - |
| 1777942518 | 13.33° C | 58% | 1035.5 hPa | 0 mm | - | - | - |
| 1777942217 | 13.33° C | 57% | 1035.5 hPa | 0 mm | - | - | - |
| 1777941917 | 13.89° C | 56% | 1035.5 hPa | 0 mm | - | - | - |
| 1777941616 | 13.89° C | 55% | 1035.5 hPa | 0 mm | - | - | - |
| 1777941316 | 14.44° C | 54% | 1035.7 hPa | 0 mm | - | - | - |
| 1777941015 | 15° C | 53% | 1035.5 hPa | 0 mm | - | - | - |
| 1777940715 | 14.44° C | 54% | 1035.8 hPa | 0 mm | - | - | - |
| 1777940414 | 15° C | 54% | 1035.6 hPa | 0 mm | - | - | - |
| 1777940114 | 14.44° C | 55% | 1035.6 hPa | 0 mm | - | - | - |
| 1777939813 | 13.33° C | 57% | 1035.9 hPa | 0 mm | - | - | - |
| 1777939512 | 13.89° C | 58% | 1035.9 hPa | 0 mm | - | - | - |
| 1777939212 | 13.89° C | 58% | 1036 hPa | 0 mm | - | - | - |
| 1777938912 | 13.33° C | 59% | 1036.1 hPa | 0 mm | - | - | - |
| 1777938611 | 13.33° C | 59% | 1035.9 hPa | 0 mm | - | - | - |
| 1777938310 | 12.22° C | 62% | 1036.1 hPa | 0 mm | - | - | - |
| 1777938010 | 12.78° C | 61% | 1036 hPa | 0 mm | - | - | - |
| 1777937709 | 12.78° C | 59% | 1036 hPa | 0 mm | - | - | - |
| 1777937409 | 13.33° C | 58% | 1036 hPa | 0 mm | - | - | - |
| 1777937108 | 13.89° C | 57% | 1036.2 hPa | 0 mm | - | - | - |
| 1777936808 | 14.44° C | 56% | 1036.2 hPa | 0 mm | - | - | - |
| 1777936507 | 14.44° C | 56% | 1036 hPa | 0 mm | - | - | - |
| 1777936207 | 14.44° C | 55% | 1036.3 hPa | 0 mm | - | - | - |
* Rain latest hour (hover to see other rain measurements)
** Current wind speed in m/s (hover to see current wind gust speed)